<?xml version="1.0" encoding="UTF-8"?>
<gpx xmlns="http://www.topografix.com/GPX/1/1" xmlns:xsi="http://www.w3.org/2001/XMLSchema-instance" version="1.1" creator="Trace de Trail" xsi:schemaLocation="http://www.topografix.com/GPX/1/1 http://www.topografix.com/GPX/1/1/gpx.xsd">
  <metadata>
    <name>Trail de Dinant Winter  2026 - 7km</name>
    <desc>Parcours créé sur Trace de Trail</desc>
    <link href="https://tracedetrail.fr/fr/trace/355475">
      <text>Cartographie du parcours</text>
    </link>
    <time>2026-08-13T10:34:59+00:00</time>
  </metadata>
  <wpt lat="50.25936" lon="4.90715">
    <ele>138</ele>
    <name>Trail de Dinant Winter - 7km</name>
    <type>depart</type>
  </wpt>
  <wpt lat="50.25936" lon="4.90715">
    <ele>138</ele>
    <type>arrivee</type>
  </wpt>
  <trk>
    <name>Trail de Dinant Winter  2026 - 7km sur TraceDeTrail.fr</name>
    <src>Trace de Trail</src>
    <trkseg>
      <trkpt lat="50.25936" lon="4.90715">
        <ele>138</ele>
        <time>2026-08-13T10:34:59+00:00</time>
      </trkpt>
      <trkpt lat="50.25941" lon="4.9071">
        <ele>137</ele>
        <time>2026-08-13T10:35:02+00:00</time>
      </trkpt>
      <trkpt lat="50.25959" lon="4.90702">
        <ele>137</ele>
        <time>2026-08-13T10:35:05+00:00</time>
      </trkpt>
      <trkpt lat="50.25977" lon="4.90695">
        <ele>137</ele>
        <time>2026-08-13T10:35:08+00:00</time>
      </trkpt>
      <trkpt lat="50.25989" lon="4.90684">
        <ele>142</ele>
        <time>2026-08-13T10:35:11+00:00</time>
      </trkpt>
      <trkpt lat="50.26004" lon="4.90673">
        <ele>139</ele>
        <time>2026-08-13T10:35:14+00:00</time>
      </trkpt>
      <trkpt lat="50.26026" lon="4.9066">
        <ele>141</ele>
        <time>2026-08-13T10:35:17+00:00</time>
      </trkpt>
      <trkpt lat="50.26054" lon="4.90645">
        <ele>137</ele>
        <time>2026-08-13T10:35:20+00:00</time>
      </trkpt>
      <trkpt lat="50.26061" lon="4.90645">
        <ele>146</ele>
        <time>2026-08-13T10:35:23+00:00</time>
      </trkpt>
      <trkpt lat="50.26074" lon="4.90658">
        <ele>133</ele>
        <time>2026-08-13T10:35:26+00:00</time>
      </trkpt>
      <trkpt lat="50.26069" lon="4.90665">
        <ele>127</ele>
        <time>2026-08-13T10:35:29+00:00</time>
      </trkpt>
      <trkpt lat="50.26056" lon="4.907">
        <ele>124</ele>
        <time>2026-08-13T10:35:32+00:00</time>
      </trkpt>
      <trkpt lat="50.26048" lon="4.90734">
        <ele>121</ele>
        <time>2026-08-13T10:35:35+00:00</time>
      </trkpt>
      <trkpt lat="50.26047" lon="4.90746">
        <ele>119</ele>
        <time>2026-08-13T10:35:38+00:00</time>
      </trkpt>
      <trkpt lat="50.26044" lon="4.90768">
        <ele>116</ele>
        <time>2026-08-13T10:35:41+00:00</time>
      </trkpt>
      <trkpt lat="50.26039" lon="4.90785">
        <ele>115</ele>
        <time>2026-08-13T10:35:44+00:00</time>
      </trkpt>
      <trkpt lat="50.2603" lon="4.90803">
        <ele>112</ele>
        <time>2026-08-13T10:35:47+00:00</time>
      </trkpt>
      <trkpt lat="50.26004" lon="4.90844">
        <ele>113</ele>
        <time>2026-08-13T10:35:50+00:00</time>
      </trkpt>
      <trkpt lat="50.25976" lon="4.90878">
        <ele>112</ele>
        <time>2026-08-13T10:35:53+00:00</time>
      </trkpt>
      <trkpt lat="50.25959" lon="4.90898">
        <ele>112</ele>
        <time>2026-08-13T10:35:56+00:00</time>
      </trkpt>
      <trkpt lat="50.25941" lon="4.90919">
        <ele>108</ele>
        <time>2026-08-13T10:35:59+00:00</time>
      </trkpt>
      <trkpt lat="50.2592" lon="4.90949">
        <ele>104</ele>
        <time>2026-08-13T10:36:02+00:00</time>
      </trkpt>
      <trkpt lat="50.25922" lon="4.90951">
        <ele>99</ele>
        <time>2026-08-13T10:36:05+00:00</time>
      </trkpt>
      <trkpt lat="50.25911" lon="4.90966">
        <ele>97</ele>
        <time>2026-08-13T10:36:08+00:00</time>
      </trkpt>
      <trkpt lat="50.25913" lon="4.90968">
        <ele>97</ele>
        <time>2026-08-13T10:36:11+00:00</time>
      </trkpt>
      <trkpt lat="50.25922" lon="4.9096">
        <ele>97</ele>
        <time>2026-08-13T10:36:14+00:00</time>
      </trkpt>
      <trkpt lat="50.25927" lon="4.90972">
        <ele>97</ele>
        <time>2026-08-13T10:36:17+00:00</time>
      </trkpt>
      <trkpt lat="50.2593" lon="4.90976">
        <ele>96</ele>
        <time>2026-08-13T10:36:20+00:00</time>
      </trkpt>
      <trkpt lat="50.25933" lon="4.90977">
        <ele>97</ele>
        <time>2026-08-13T10:36:23+00:00</time>
      </trkpt>
      <trkpt lat="50.2596" lon="4.90981">
        <ele>97</ele>
        <time>2026-08-13T10:36:26+00:00</time>
      </trkpt>
      <trkpt lat="50.25986" lon="4.90983">
        <ele>96</ele>
        <time>2026-08-13T10:36:29+00:00</time>
      </trkpt>
      <trkpt lat="50.25994" lon="4.90991">
        <ele>95</ele>
        <time>2026-08-13T10:36:32+00:00</time>
      </trkpt>
      <trkpt lat="50.25996" lon="4.90992">
        <ele>95</ele>
        <time>2026-08-13T10:36:35+00:00</time>
      </trkpt>
      <trkpt lat="50.26002" lon="4.90991">
        <ele>95</ele>
        <time>2026-08-13T10:36:38+00:00</time>
      </trkpt>
      <trkpt lat="50.26004" lon="4.90997">
        <ele>95</ele>
        <time>2026-08-13T10:36:41+00:00</time>
      </trkpt>
      <trkpt lat="50.26006" lon="4.90998">
        <ele>95</ele>
        <time>2026-08-13T10:36:44+00:00</time>
      </trkpt>
      <trkpt lat="50.2601" lon="4.90998">
        <ele>95</ele>
        <time>2026-08-13T10:36:47+00:00</time>
      </trkpt>
      <trkpt lat="50.26015" lon="4.91022">
        <ele>94</ele>
        <time>2026-08-13T10:36:50+00:00</time>
      </trkpt>
      <trkpt lat="50.26021" lon="4.91047">
        <ele>94</ele>
        <time>2026-08-13T10:36:53+00:00</time>
      </trkpt>
      <trkpt lat="50.26021" lon="4.91049">
        <ele>94</ele>
        <time>2026-08-13T10:36:56+00:00</time>
      </trkpt>
      <trkpt lat="50.2603" lon="4.91093">
        <ele>92</ele>
        <time>2026-08-13T10:36:59+00:00</time>
      </trkpt>
      <trkpt lat="50.26038" lon="4.91137">
        <ele>92</ele>
        <time>2026-08-13T10:37:02+00:00</time>
      </trkpt>
      <trkpt lat="50.26049" lon="4.91194">
        <ele>92</ele>
        <time>2026-08-13T10:37:05+00:00</time>
      </trkpt>
      <trkpt lat="50.26061" lon="4.9121">
        <ele>93</ele>
        <time>2026-08-13T10:37:08+00:00</time>
      </trkpt>
      <trkpt lat="50.26081" lon="4.91233">
        <ele>93</ele>
        <time>2026-08-13T10:37:11+00:00</time>
      </trkpt>
      <trkpt lat="50.26095" lon="4.91258">
        <ele>94</ele>
        <time>2026-08-13T10:37:14+00:00</time>
      </trkpt>
      <trkpt lat="50.26098" lon="4.91269">
        <ele>95</ele>
        <time>2026-08-13T10:37:17+00:00</time>
      </trkpt>
      <trkpt lat="50.26108" lon="4.91296">
        <ele>98</ele>
        <time>2026-08-13T10:37:20+00:00</time>
      </trkpt>
      <trkpt lat="50.26124" lon="4.91342">
        <ele>122</ele>
        <time>2026-08-13T10:37:23+00:00</time>
      </trkpt>
      <trkpt lat="50.26152" lon="4.9135">
        <ele>145</ele>
        <time>2026-08-13T10:37:26+00:00</time>
      </trkpt>
      <trkpt lat="50.26154" lon="4.91328">
        <ele>134</ele>
        <time>2026-08-13T10:37:29+00:00</time>
      </trkpt>
      <trkpt lat="50.26156" lon="4.91328">
        <ele>134</ele>
        <time>2026-08-13T10:37:32+00:00</time>
      </trkpt>
      <trkpt lat="50.26155" lon="4.91361">
        <ele>141</ele>
        <time>2026-08-13T10:37:35+00:00</time>
      </trkpt>
      <trkpt lat="50.26157" lon="4.91361">
        <ele>150</ele>
        <time>2026-08-13T10:37:38+00:00</time>
      </trkpt>
      <trkpt lat="50.26161" lon="4.91328">
        <ele>137</ele>
        <time>2026-08-13T10:37:41+00:00</time>
      </trkpt>
      <trkpt lat="50.26161" lon="4.91322">
        <ele>137</ele>
        <time>2026-08-13T10:37:44+00:00</time>
      </trkpt>
      <trkpt lat="50.26158" lon="4.91293">
        <ele>132</ele>
        <time>2026-08-13T10:37:47+00:00</time>
      </trkpt>
      <trkpt lat="50.26159" lon="4.91292">
        <ele>124</ele>
        <time>2026-08-13T10:37:50+00:00</time>
      </trkpt>
      <trkpt lat="50.26161" lon="4.91292">
        <ele>128</ele>
        <time>2026-08-13T10:37:53+00:00</time>
      </trkpt>
      <trkpt lat="50.26161" lon="4.91296">
        <ele>128</ele>
        <time>2026-08-13T10:37:56+00:00</time>
      </trkpt>
      <trkpt lat="50.26162" lon="4.91304">
        <ele>130</ele>
        <time>2026-08-13T10:37:59+00:00</time>
      </trkpt>
      <trkpt lat="50.26167" lon="4.91303">
        <ele>130</ele>
        <time>2026-08-13T10:38:02+00:00</time>
      </trkpt>
      <trkpt lat="50.26167" lon="4.91295">
        <ele>128</ele>
        <time>2026-08-13T10:38:05+00:00</time>
      </trkpt>
      <trkpt lat="50.26166" lon="4.9129">
        <ele>128</ele>
        <time>2026-08-13T10:38:08+00:00</time>
      </trkpt>
      <trkpt lat="50.2617" lon="4.9129">
        <ele>130</ele>
        <time>2026-08-13T10:38:11+00:00</time>
      </trkpt>
      <trkpt lat="50.26163" lon="4.91237">
        <ele>120</ele>
        <time>2026-08-13T10:38:14+00:00</time>
      </trkpt>
      <trkpt lat="50.26163" lon="4.91219">
        <ele>104</ele>
        <time>2026-08-13T10:38:17+00:00</time>
      </trkpt>
      <trkpt lat="50.26174" lon="4.91223">
        <ele>122</ele>
        <time>2026-08-13T10:38:20+00:00</time>
      </trkpt>
      <trkpt lat="50.26175" lon="4.9124">
        <ele>118</ele>
        <time>2026-08-13T10:38:23+00:00</time>
      </trkpt>
      <trkpt lat="50.26184" lon="4.91262">
        <ele>125</ele>
        <time>2026-08-13T10:38:26+00:00</time>
      </trkpt>
      <trkpt lat="50.26186" lon="4.91281">
        <ele>130</ele>
        <time>2026-08-13T10:38:29+00:00</time>
      </trkpt>
      <trkpt lat="50.26188" lon="4.91309">
        <ele>136</ele>
        <time>2026-08-13T10:38:32+00:00</time>
      </trkpt>
      <trkpt lat="50.26192" lon="4.91323">
        <ele>143</ele>
        <time>2026-08-13T10:38:35+00:00</time>
      </trkpt>
      <trkpt lat="50.26202" lon="4.91325">
        <ele>145</ele>
        <time>2026-08-13T10:38:38+00:00</time>
      </trkpt>
      <trkpt lat="50.26205" lon="4.9134">
        <ele>151</ele>
        <time>2026-08-13T10:38:41+00:00</time>
      </trkpt>
      <trkpt lat="50.26192" lon="4.9135">
        <ele>152</ele>
        <time>2026-08-13T10:38:44+00:00</time>
      </trkpt>
      <trkpt lat="50.26176" lon="4.91351">
        <ele>149</ele>
        <time>2026-08-13T10:38:47+00:00</time>
      </trkpt>
      <trkpt lat="50.26176" lon="4.91381">
        <ele>159</ele>
        <time>2026-08-13T10:38:50+00:00</time>
      </trkpt>
      <trkpt lat="50.26176" lon="4.91424">
        <ele>169</ele>
        <time>2026-08-13T10:38:53+00:00</time>
      </trkpt>
      <trkpt lat="50.26175" lon="4.91436">
        <ele>171</ele>
        <time>2026-08-13T10:38:56+00:00</time>
      </trkpt>
      <trkpt lat="50.2615" lon="4.91457">
        <ele>172</ele>
        <time>2026-08-13T10:38:59+00:00</time>
      </trkpt>
      <trkpt lat="50.26146" lon="4.91465">
        <ele>171</ele>
        <time>2026-08-13T10:39:02+00:00</time>
      </trkpt>
      <trkpt lat="50.26141" lon="4.91481">
        <ele>174</ele>
        <time>2026-08-13T10:39:05+00:00</time>
      </trkpt>
      <trkpt lat="50.2614" lon="4.915">
        <ele>175</ele>
        <time>2026-08-13T10:39:08+00:00</time>
      </trkpt>
      <trkpt lat="50.26154" lon="4.91519">
        <ele>182</ele>
        <time>2026-08-13T10:39:11+00:00</time>
      </trkpt>
      <trkpt lat="50.26167" lon="4.91527">
        <ele>183</ele>
        <time>2026-08-13T10:39:14+00:00</time>
      </trkpt>
      <trkpt lat="50.26164" lon="4.91555">
        <ele>183</ele>
        <time>2026-08-13T10:39:17+00:00</time>
      </trkpt>
      <trkpt lat="50.2616" lon="4.91591">
        <ele>183</ele>
        <time>2026-08-13T10:39:20+00:00</time>
      </trkpt>
      <trkpt lat="50.26156" lon="4.91626">
        <ele>183</ele>
        <time>2026-08-13T10:39:23+00:00</time>
      </trkpt>
      <trkpt lat="50.26151" lon="4.91667">
        <ele>184</ele>
        <time>2026-08-13T10:39:26+00:00</time>
      </trkpt>
      <trkpt lat="50.26149" lon="4.91677">
        <ele>185</ele>
        <time>2026-08-13T10:39:29+00:00</time>
      </trkpt>
      <trkpt lat="50.26135" lon="4.91673">
        <ele>185</ele>
        <time>2026-08-13T10:39:32+00:00</time>
      </trkpt>
      <trkpt lat="50.26126" lon="4.91673">
        <ele>186</ele>
        <time>2026-08-13T10:39:35+00:00</time>
      </trkpt>
      <trkpt lat="50.261" lon="4.91677">
        <ele>184</ele>
        <time>2026-08-13T10:39:38+00:00</time>
      </trkpt>
      <trkpt lat="50.26084" lon="4.91676">
        <ele>186</ele>
        <time>2026-08-13T10:39:41+00:00</time>
      </trkpt>
      <trkpt lat="50.26062" lon="4.91676">
        <ele>184</ele>
        <time>2026-08-13T10:39:44+00:00</time>
      </trkpt>
      <trkpt lat="50.26024" lon="4.91675">
        <ele>181</ele>
        <time>2026-08-13T10:39:47+00:00</time>
      </trkpt>
      <trkpt lat="50.26014" lon="4.91668">
        <ele>179</ele>
        <time>2026-08-13T10:39:50+00:00</time>
      </trkpt>
      <trkpt lat="50.26005" lon="4.91667">
        <ele>178</ele>
        <time>2026-08-13T10:39:53+00:00</time>
      </trkpt>
      <trkpt lat="50.25997" lon="4.91673">
        <ele>178</ele>
        <time>2026-08-13T10:39:56+00:00</time>
      </trkpt>
      <trkpt lat="50.25988" lon="4.91675">
        <ele>176</ele>
        <time>2026-08-13T10:39:59+00:00</time>
      </trkpt>
      <trkpt lat="50.25972" lon="4.91682">
        <ele>176</ele>
        <time>2026-08-13T10:40:02+00:00</time>
      </trkpt>
      <trkpt lat="50.25967" lon="4.91682">
        <ele>178</ele>
        <time>2026-08-13T10:40:05+00:00</time>
      </trkpt>
      <trkpt lat="50.25965" lon="4.91685">
        <ele>174</ele>
        <time>2026-08-13T10:40:08+00:00</time>
      </trkpt>
      <trkpt lat="50.25964" lon="4.91696">
        <ele>176</ele>
        <time>2026-08-13T10:40:11+00:00</time>
      </trkpt>
      <trkpt lat="50.25954" lon="4.91721">
        <ele>181</ele>
        <time>2026-08-13T10:40:14+00:00</time>
      </trkpt>
      <trkpt lat="50.25952" lon="4.91734">
        <ele>183</ele>
        <time>2026-08-13T10:40:17+00:00</time>
      </trkpt>
      <trkpt lat="50.25944" lon="4.9175">
        <ele>184</ele>
        <time>2026-08-13T10:40:20+00:00</time>
      </trkpt>
      <trkpt lat="50.25947" lon="4.91786">
        <ele>185</ele>
        <time>2026-08-13T10:40:23+00:00</time>
      </trkpt>
      <trkpt lat="50.25944" lon="4.91795">
        <ele>185</ele>
        <time>2026-08-13T10:40:26+00:00</time>
      </trkpt>
      <trkpt lat="50.25935" lon="4.91817">
        <ele>185</ele>
        <time>2026-08-13T10:40:29+00:00</time>
      </trkpt>
      <trkpt lat="50.2591" lon="4.91855">
        <ele>185</ele>
        <time>2026-08-13T10:40:32+00:00</time>
      </trkpt>
      <trkpt lat="50.25903" lon="4.91847">
        <ele>185</ele>
        <time>2026-08-13T10:40:35+00:00</time>
      </trkpt>
      <trkpt lat="50.25897" lon="4.91834">
        <ele>184</ele>
        <time>2026-08-13T10:40:38+00:00</time>
      </trkpt>
      <trkpt lat="50.25857" lon="4.91844">
        <ele>184</ele>
        <time>2026-08-13T10:40:41+00:00</time>
      </trkpt>
      <trkpt lat="50.25818" lon="4.91857">
        <ele>184</ele>
        <time>2026-08-13T10:40:44+00:00</time>
      </trkpt>
      <trkpt lat="50.25807" lon="4.9186">
        <ele>184</ele>
        <time>2026-08-13T10:40:47+00:00</time>
      </trkpt>
      <trkpt lat="50.258" lon="4.91855">
        <ele>184</ele>
        <time>2026-08-13T10:40:50+00:00</time>
      </trkpt>
      <trkpt lat="50.25793" lon="4.91854">
        <ele>184</ele>
        <time>2026-08-13T10:40:53+00:00</time>
      </trkpt>
      <trkpt lat="50.25788" lon="4.91855">
        <ele>184</ele>
        <time>2026-08-13T10:40:56+00:00</time>
      </trkpt>
      <trkpt lat="50.25777" lon="4.91867">
        <ele>184</ele>
        <time>2026-08-13T10:40:59+00:00</time>
      </trkpt>
      <trkpt lat="50.2576" lon="4.91912">
        <ele>185</ele>
        <time>2026-08-13T10:41:02+00:00</time>
      </trkpt>
      <trkpt lat="50.25743" lon="4.91954">
        <ele>189</ele>
        <time>2026-08-13T10:41:05+00:00</time>
      </trkpt>
      <trkpt lat="50.25729" lon="4.91971">
        <ele>190</ele>
        <time>2026-08-13T10:41:08+00:00</time>
      </trkpt>
      <trkpt lat="50.25725" lon="4.91974">
        <ele>190</ele>
        <time>2026-08-13T10:41:11+00:00</time>
      </trkpt>
      <trkpt lat="50.25716" lon="4.91978">
        <ele>190</ele>
        <time>2026-08-13T10:41:14+00:00</time>
      </trkpt>
      <trkpt lat="50.25704" lon="4.91979">
        <ele>190</ele>
        <time>2026-08-13T10:41:17+00:00</time>
      </trkpt>
      <trkpt lat="50.25698" lon="4.91976">
        <ele>190</ele>
        <time>2026-08-13T10:41:20+00:00</time>
      </trkpt>
      <trkpt lat="50.25688" lon="4.91967">
        <ele>190</ele>
        <time>2026-08-13T10:41:23+00:00</time>
      </trkpt>
      <trkpt lat="50.25677" lon="4.9195">
        <ele>190</ele>
        <time>2026-08-13T10:41:26+00:00</time>
      </trkpt>
      <trkpt lat="50.25664" lon="4.91923">
        <ele>190</ele>
        <time>2026-08-13T10:41:29+00:00</time>
      </trkpt>
      <trkpt lat="50.25657" lon="4.91913">
        <ele>191</ele>
        <time>2026-08-13T10:41:32+00:00</time>
      </trkpt>
      <trkpt lat="50.25655" lon="4.91911">
        <ele>191</ele>
        <time>2026-08-13T10:41:35+00:00</time>
      </trkpt>
      <trkpt lat="50.25632" lon="4.9191">
        <ele>190</ele>
        <time>2026-08-13T10:41:38+00:00</time>
      </trkpt>
      <trkpt lat="50.25627" lon="4.91908">
        <ele>191</ele>
        <time>2026-08-13T10:41:41+00:00</time>
      </trkpt>
      <trkpt lat="50.25604" lon="4.91913">
        <ele>190</ele>
        <time>2026-08-13T10:41:44+00:00</time>
      </trkpt>
      <trkpt lat="50.25591" lon="4.91923">
        <ele>189</ele>
        <time>2026-08-13T10:41:47+00:00</time>
      </trkpt>
      <trkpt lat="50.25587" lon="4.91932">
        <ele>190</ele>
        <time>2026-08-13T10:41:50+00:00</time>
      </trkpt>
      <trkpt lat="50.25585" lon="4.91935">
        <ele>190</ele>
        <time>2026-08-13T10:41:53+00:00</time>
      </trkpt>
      <trkpt lat="50.25579" lon="4.9194">
        <ele>191</ele>
        <time>2026-08-13T10:41:56+00:00</time>
      </trkpt>
      <trkpt lat="50.25577" lon="4.91939">
        <ele>189</ele>
        <time>2026-08-13T10:41:59+00:00</time>
      </trkpt>
      <trkpt lat="50.2557" lon="4.91933">
        <ele>191</ele>
        <time>2026-08-13T10:42:02+00:00</time>
      </trkpt>
      <trkpt lat="50.25566" lon="4.91933">
        <ele>189</ele>
        <time>2026-08-13T10:42:05+00:00</time>
      </trkpt>
      <trkpt lat="50.25563" lon="4.91935">
        <ele>189</ele>
        <time>2026-08-13T10:42:08+00:00</time>
      </trkpt>
      <trkpt lat="50.25547" lon="4.91939">
        <ele>192</ele>
        <time>2026-08-13T10:42:11+00:00</time>
      </trkpt>
      <trkpt lat="50.25534" lon="4.91961">
        <ele>196</ele>
        <time>2026-08-13T10:42:14+00:00</time>
      </trkpt>
      <trkpt lat="50.2553" lon="4.91965">
        <ele>196</ele>
        <time>2026-08-13T10:42:17+00:00</time>
      </trkpt>
      <trkpt lat="50.25513" lon="4.91975">
        <ele>196</ele>
        <time>2026-08-13T10:42:20+00:00</time>
      </trkpt>
      <trkpt lat="50.25501" lon="4.9198">
        <ele>196</ele>
        <time>2026-08-13T10:42:23+00:00</time>
      </trkpt>
      <trkpt lat="50.2549" lon="4.91986">
        <ele>196</ele>
        <time>2026-08-13T10:42:26+00:00</time>
      </trkpt>
      <trkpt lat="50.25472" lon="4.91987">
        <ele>196</ele>
        <time>2026-08-13T10:42:29+00:00</time>
      </trkpt>
      <trkpt lat="50.25451" lon="4.91994">
        <ele>195</ele>
        <time>2026-08-13T10:42:32+00:00</time>
      </trkpt>
      <trkpt lat="50.25438" lon="4.91995">
        <ele>193</ele>
        <time>2026-08-13T10:42:35+00:00</time>
      </trkpt>
      <trkpt lat="50.2543" lon="4.91998">
        <ele>193</ele>
        <time>2026-08-13T10:42:38+00:00</time>
      </trkpt>
      <trkpt lat="50.25422" lon="4.92002">
        <ele>191</ele>
        <time>2026-08-13T10:42:41+00:00</time>
      </trkpt>
      <trkpt lat="50.25416" lon="4.92002">
        <ele>189</ele>
        <time>2026-08-13T10:42:44+00:00</time>
      </trkpt>
      <trkpt lat="50.25408" lon="4.91997">
        <ele>186</ele>
        <time>2026-08-13T10:42:47+00:00</time>
      </trkpt>
      <trkpt lat="50.25404" lon="4.91998">
        <ele>186</ele>
        <time>2026-08-13T10:42:50+00:00</time>
      </trkpt>
      <trkpt lat="50.25401" lon="4.92">
        <ele>187</ele>
        <time>2026-08-13T10:42:53+00:00</time>
      </trkpt>
      <trkpt lat="50.25396" lon="4.92005">
        <ele>185</ele>
        <time>2026-08-13T10:42:56+00:00</time>
      </trkpt>
      <trkpt lat="50.25388" lon="4.92025">
        <ele>185</ele>
        <time>2026-08-13T10:42:59+00:00</time>
      </trkpt>
      <trkpt lat="50.25385" lon="4.92041">
        <ele>186</ele>
        <time>2026-08-13T10:43:02+00:00</time>
      </trkpt>
      <trkpt lat="50.25382" lon="4.92049">
        <ele>186</ele>
        <time>2026-08-13T10:43:05+00:00</time>
      </trkpt>
      <trkpt lat="50.25374" lon="4.92066">
        <ele>183</ele>
        <time>2026-08-13T10:43:08+00:00</time>
      </trkpt>
      <trkpt lat="50.25373" lon="4.92072">
        <ele>183</ele>
        <time>2026-08-13T10:43:11+00:00</time>
      </trkpt>
      <trkpt lat="50.25375" lon="4.92083">
        <ele>182</ele>
        <time>2026-08-13T10:43:14+00:00</time>
      </trkpt>
      <trkpt lat="50.25373" lon="4.92092">
        <ele>180</ele>
        <time>2026-08-13T10:43:17+00:00</time>
      </trkpt>
      <trkpt lat="50.25373" lon="4.921">
        <ele>180</ele>
        <time>2026-08-13T10:43:20+00:00</time>
      </trkpt>
      <trkpt lat="50.25376" lon="4.92107">
        <ele>180</ele>
        <time>2026-08-13T10:43:23+00:00</time>
      </trkpt>
      <trkpt lat="50.25368" lon="4.92124">
        <ele>179</ele>
        <time>2026-08-13T10:43:26+00:00</time>
      </trkpt>
      <trkpt lat="50.25349" lon="4.92142">
        <ele>179</ele>
        <time>2026-08-13T10:43:29+00:00</time>
      </trkpt>
      <trkpt lat="50.2533" lon="4.92161">
        <ele>180</ele>
        <time>2026-08-13T10:43:32+00:00</time>
      </trkpt>
      <trkpt lat="50.25342" lon="4.92204">
        <ele>186</ele>
        <time>2026-08-13T10:43:35+00:00</time>
      </trkpt>
      <trkpt lat="50.25355" lon="4.92246">
        <ele>193</ele>
        <time>2026-08-13T10:43:38+00:00</time>
      </trkpt>
      <trkpt lat="50.25371" lon="4.92302">
        <ele>195</ele>
        <time>2026-08-13T10:43:41+00:00</time>
      </trkpt>
      <trkpt lat="50.25385" lon="4.9236">
        <ele>198</ele>
        <time>2026-08-13T10:43:44+00:00</time>
      </trkpt>
      <trkpt lat="50.25389" lon="4.92423">
        <ele>198</ele>
        <time>2026-08-13T10:43:47+00:00</time>
      </trkpt>
      <trkpt lat="50.25389" lon="4.9244">
        <ele>199</ele>
        <time>2026-08-13T10:43:50+00:00</time>
      </trkpt>
      <trkpt lat="50.25388" lon="4.92455">
        <ele>199</ele>
        <time>2026-08-13T10:43:53+00:00</time>
      </trkpt>
      <trkpt lat="50.25385" lon="4.92472">
        <ele>201</ele>
        <time>2026-08-13T10:43:56+00:00</time>
      </trkpt>
      <trkpt lat="50.2538" lon="4.92489">
        <ele>202</ele>
        <time>2026-08-13T10:43:59+00:00</time>
      </trkpt>
      <trkpt lat="50.25359" lon="4.9254">
        <ele>206</ele>
        <time>2026-08-13T10:44:02+00:00</time>
      </trkpt>
      <trkpt lat="50.25358" lon="4.92549">
        <ele>206</ele>
        <time>2026-08-13T10:44:05+00:00</time>
      </trkpt>
      <trkpt lat="50.25363" lon="4.92598">
        <ele>213</ele>
        <time>2026-08-13T10:44:08+00:00</time>
      </trkpt>
      <trkpt lat="50.25367" lon="4.92631">
        <ele>215</ele>
        <time>2026-08-13T10:44:11+00:00</time>
      </trkpt>
      <trkpt lat="50.25372" lon="4.92664">
        <ele>217</ele>
        <time>2026-08-13T10:44:14+00:00</time>
      </trkpt>
      <trkpt lat="50.25382" lon="4.92709">
        <ele>219</ele>
        <time>2026-08-13T10:44:17+00:00</time>
      </trkpt>
      <trkpt lat="50.25388" lon="4.92744">
        <ele>220</ele>
        <time>2026-08-13T10:44:20+00:00</time>
      </trkpt>
      <trkpt lat="50.25396" lon="4.92782">
        <ele>222</ele>
        <time>2026-08-13T10:44:23+00:00</time>
      </trkpt>
      <trkpt lat="50.25407" lon="4.92835">
        <ele>223</ele>
        <time>2026-08-13T10:44:26+00:00</time>
      </trkpt>
      <trkpt lat="50.25416" lon="4.92882">
        <ele>224</ele>
        <time>2026-08-13T10:44:29+00:00</time>
      </trkpt>
      <trkpt lat="50.25425" lon="4.92928">
        <ele>225</ele>
        <time>2026-08-13T10:44:32+00:00</time>
      </trkpt>
      <trkpt lat="50.25439" lon="4.93002">
        <ele>226</ele>
        <time>2026-08-13T10:44:35+00:00</time>
      </trkpt>
      <trkpt lat="50.25444" lon="4.93009">
        <ele>226</ele>
        <time>2026-08-13T10:44:38+00:00</time>
      </trkpt>
      <trkpt lat="50.25445" lon="4.93037">
        <ele>226</ele>
        <time>2026-08-13T10:44:41+00:00</time>
      </trkpt>
      <trkpt lat="50.25435" lon="4.93031">
        <ele>227</ele>
        <time>2026-08-13T10:44:44+00:00</time>
      </trkpt>
      <trkpt lat="50.25418" lon="4.93018">
        <ele>228</ele>
        <time>2026-08-13T10:44:47+00:00</time>
      </trkpt>
      <trkpt lat="50.25397" lon="4.93002">
        <ele>229</ele>
        <time>2026-08-13T10:44:50+00:00</time>
      </trkpt>
      <trkpt lat="50.25372" lon="4.92981">
        <ele>229</ele>
        <time>2026-08-13T10:44:53+00:00</time>
      </trkpt>
      <trkpt lat="50.25323" lon="4.92941">
        <ele>231</ele>
        <time>2026-08-13T10:44:56+00:00</time>
      </trkpt>
      <trkpt lat="50.25301" lon="4.92925">
        <ele>231</ele>
        <time>2026-08-13T10:44:59+00:00</time>
      </trkpt>
      <trkpt lat="50.25273" lon="4.92905">
        <ele>233</ele>
        <time>2026-08-13T10:45:02+00:00</time>
      </trkpt>
      <trkpt lat="50.25251" lon="4.92888">
        <ele>234</ele>
        <time>2026-08-13T10:45:05+00:00</time>
      </trkpt>
      <trkpt lat="50.25223" lon="4.92867">
        <ele>237</ele>
        <time>2026-08-13T10:45:08+00:00</time>
      </trkpt>
      <trkpt lat="50.25194" lon="4.92844">
        <ele>238</ele>
        <time>2026-08-13T10:45:11+00:00</time>
      </trkpt>
      <trkpt lat="50.25166" lon="4.92822">
        <ele>238</ele>
        <time>2026-08-13T10:45:14+00:00</time>
      </trkpt>
      <trkpt lat="50.25111" lon="4.92778">
        <ele>239</ele>
        <time>2026-08-13T10:45:17+00:00</time>
      </trkpt>
      <trkpt lat="50.25086" lon="4.92761">
        <ele>239</ele>
        <time>2026-08-13T10:45:20+00:00</time>
      </trkpt>
      <trkpt lat="50.25068" lon="4.9275">
        <ele>239</ele>
        <time>2026-08-13T10:45:23+00:00</time>
      </trkpt>
      <trkpt lat="50.25067" lon="4.92714">
        <ele>238</ele>
        <time>2026-08-13T10:45:26+00:00</time>
      </trkpt>
      <trkpt lat="50.25067" lon="4.92674">
        <ele>237</ele>
        <time>2026-08-13T10:45:29+00:00</time>
      </trkpt>
      <trkpt lat="50.25061" lon="4.92616">
        <ele>234</ele>
        <time>2026-08-13T10:45:32+00:00</time>
      </trkpt>
      <trkpt lat="50.25062" lon="4.92598">
        <ele>233</ele>
        <time>2026-08-13T10:45:35+00:00</time>
      </trkpt>
      <trkpt lat="50.25048" lon="4.92582">
        <ele>233</ele>
        <time>2026-08-13T10:45:38+00:00</time>
      </trkpt>
      <trkpt lat="50.25021" lon="4.92555">
        <ele>232</ele>
        <time>2026-08-13T10:45:41+00:00</time>
      </trkpt>
      <trkpt lat="50.25012" lon="4.9255">
        <ele>232</ele>
        <time>2026-08-13T10:45:44+00:00</time>
      </trkpt>
      <trkpt lat="50.24999" lon="4.92547">
        <ele>231</ele>
        <time>2026-08-13T10:45:47+00:00</time>
      </trkpt>
      <trkpt lat="50.24989" lon="4.92547">
        <ele>230</ele>
        <time>2026-08-13T10:45:50+00:00</time>
      </trkpt>
      <trkpt lat="50.24981" lon="4.92552">
        <ele>230</ele>
        <time>2026-08-13T10:45:53+00:00</time>
      </trkpt>
      <trkpt lat="50.2495" lon="4.92535">
        <ele>225</ele>
        <time>2026-08-13T10:45:56+00:00</time>
      </trkpt>
      <trkpt lat="50.2491" lon="4.9252">
        <ele>217</ele>
        <time>2026-08-13T10:45:59+00:00</time>
      </trkpt>
      <trkpt lat="50.24872" lon="4.92503">
        <ele>213</ele>
        <time>2026-08-13T10:46:02+00:00</time>
      </trkpt>
      <trkpt lat="50.24839" lon="4.92519">
        <ele>209</ele>
        <time>2026-08-13T10:46:05+00:00</time>
      </trkpt>
      <trkpt lat="50.24839" lon="4.92514">
        <ele>209</ele>
        <time>2026-08-13T10:46:08+00:00</time>
      </trkpt>
      <trkpt lat="50.24833" lon="4.92473">
        <ele>201</ele>
        <time>2026-08-13T10:46:11+00:00</time>
      </trkpt>
      <trkpt lat="50.24823" lon="4.92399">
        <ele>181</ele>
        <time>2026-08-13T10:46:14+00:00</time>
      </trkpt>
      <trkpt lat="50.24823" lon="4.92377">
        <ele>177</ele>
        <time>2026-08-13T10:46:17+00:00</time>
      </trkpt>
      <trkpt lat="50.24818" lon="4.92364">
        <ele>177</ele>
        <time>2026-08-13T10:46:20+00:00</time>
      </trkpt>
      <trkpt lat="50.24817" lon="4.9236">
        <ele>174</ele>
        <time>2026-08-13T10:46:23+00:00</time>
      </trkpt>
      <trkpt lat="50.24818" lon="4.92347">
        <ele>173</ele>
        <time>2026-08-13T10:46:26+00:00</time>
      </trkpt>
      <trkpt lat="50.24816" lon="4.92339">
        <ele>170</ele>
        <time>2026-08-13T10:46:29+00:00</time>
      </trkpt>
      <trkpt lat="50.24813" lon="4.92338">
        <ele>170</ele>
        <time>2026-08-13T10:46:32+00:00</time>
      </trkpt>
      <trkpt lat="50.24812" lon="4.92336">
        <ele>170</ele>
        <time>2026-08-13T10:46:35+00:00</time>
      </trkpt>
      <trkpt lat="50.24815" lon="4.92331">
        <ele>170</ele>
        <time>2026-08-13T10:46:38+00:00</time>
      </trkpt>
      <trkpt lat="50.24816" lon="4.92321">
        <ele>167</ele>
        <time>2026-08-13T10:46:41+00:00</time>
      </trkpt>
      <trkpt lat="50.24813" lon="4.92314">
        <ele>165</ele>
        <time>2026-08-13T10:46:44+00:00</time>
      </trkpt>
      <trkpt lat="50.24816" lon="4.92307">
        <ele>163</ele>
        <time>2026-08-13T10:46:47+00:00</time>
      </trkpt>
      <trkpt lat="50.24817" lon="4.92299">
        <ele>160</ele>
        <time>2026-08-13T10:46:50+00:00</time>
      </trkpt>
      <trkpt lat="50.24813" lon="4.92294">
        <ele>160</ele>
        <time>2026-08-13T10:46:53+00:00</time>
      </trkpt>
      <trkpt lat="50.24808" lon="4.92283">
        <ele>159</ele>
        <time>2026-08-13T10:46:56+00:00</time>
      </trkpt>
      <trkpt lat="50.24799" lon="4.9224">
        <ele>149</ele>
        <time>2026-08-13T10:46:59+00:00</time>
      </trkpt>
      <trkpt lat="50.24802" lon="4.92219">
        <ele>139</ele>
        <time>2026-08-13T10:47:02+00:00</time>
      </trkpt>
      <trkpt lat="50.24799" lon="4.92216">
        <ele>139</ele>
        <time>2026-08-13T10:47:05+00:00</time>
      </trkpt>
      <trkpt lat="50.24799" lon="4.9221">
        <ele>139</ele>
        <time>2026-08-13T10:47:08+00:00</time>
      </trkpt>
      <trkpt lat="50.24797" lon="4.92206">
        <ele>134</ele>
        <time>2026-08-13T10:47:11+00:00</time>
      </trkpt>
      <trkpt lat="50.24797" lon="4.92191">
        <ele>132</ele>
        <time>2026-08-13T10:47:14+00:00</time>
      </trkpt>
      <trkpt lat="50.24793" lon="4.92178">
        <ele>125</ele>
        <time>2026-08-13T10:47:17+00:00</time>
      </trkpt>
      <trkpt lat="50.24787" lon="4.92187">
        <ele>127</ele>
        <time>2026-08-13T10:47:20+00:00</time>
      </trkpt>
      <trkpt lat="50.24785" lon="4.92186">
        <ele>127</ele>
        <time>2026-08-13T10:47:23+00:00</time>
      </trkpt>
      <trkpt lat="50.24785" lon="4.92183">
        <ele>127</ele>
        <time>2026-08-13T10:47:26+00:00</time>
      </trkpt>
      <trkpt lat="50.24778" lon="4.92184">
        <ele>122</ele>
        <time>2026-08-13T10:47:29+00:00</time>
      </trkpt>
      <trkpt lat="50.24777" lon="4.92178">
        <ele>114</ele>
        <time>2026-08-13T10:47:32+00:00</time>
      </trkpt>
      <trkpt lat="50.24778" lon="4.92176">
        <ele>114</ele>
        <time>2026-08-13T10:47:35+00:00</time>
      </trkpt>
      <trkpt lat="50.24775" lon="4.92162">
        <ele>110</ele>
        <time>2026-08-13T10:47:38+00:00</time>
      </trkpt>
      <trkpt lat="50.24764" lon="4.92163">
        <ele>109</ele>
        <time>2026-08-13T10:47:41+00:00</time>
      </trkpt>
      <trkpt lat="50.24758" lon="4.9216">
        <ele>111</ele>
        <time>2026-08-13T10:47:44+00:00</time>
      </trkpt>
      <trkpt lat="50.2475" lon="4.92151">
        <ele>105</ele>
        <time>2026-08-13T10:47:47+00:00</time>
      </trkpt>
      <trkpt lat="50.24744" lon="4.9213">
        <ele>94</ele>
        <time>2026-08-13T10:47:50+00:00</time>
      </trkpt>
      <trkpt lat="50.24738" lon="4.92106">
        <ele>92</ele>
        <time>2026-08-13T10:47:53+00:00</time>
      </trkpt>
      <trkpt lat="50.24733" lon="4.92108">
        <ele>92</ele>
        <time>2026-08-13T10:47:56+00:00</time>
      </trkpt>
      <trkpt lat="50.24733" lon="4.92101">
        <ele>92</ele>
        <time>2026-08-13T10:47:59+00:00</time>
      </trkpt>
      <trkpt lat="50.24732" lon="4.92101">
        <ele>92</ele>
        <time>2026-08-13T10:48:02+00:00</time>
      </trkpt>
      <trkpt lat="50.24728" lon="4.92071">
        <ele>91</ele>
        <time>2026-08-13T10:48:05+00:00</time>
      </trkpt>
      <trkpt lat="50.24727" lon="4.92069">
        <ele>89</ele>
        <time>2026-08-13T10:48:08+00:00</time>
      </trkpt>
      <trkpt lat="50.24726" lon="4.92065">
        <ele>89</ele>
        <time>2026-08-13T10:48:11+00:00</time>
      </trkpt>
      <trkpt lat="50.24748" lon="4.92057">
        <ele>90</ele>
        <time>2026-08-13T10:48:14+00:00</time>
      </trkpt>
      <trkpt lat="50.24776" lon="4.92048">
        <ele>90</ele>
        <time>2026-08-13T10:48:17+00:00</time>
      </trkpt>
      <trkpt lat="50.24786" lon="4.92044">
        <ele>91</ele>
        <time>2026-08-13T10:48:20+00:00</time>
      </trkpt>
      <trkpt lat="50.24816" lon="4.92029">
        <ele>90</ele>
        <time>2026-08-13T10:48:23+00:00</time>
      </trkpt>
      <trkpt lat="50.24844" lon="4.92012">
        <ele>90</ele>
        <time>2026-08-13T10:48:26+00:00</time>
      </trkpt>
      <trkpt lat="50.24873" lon="4.91995">
        <ele>89</ele>
        <time>2026-08-13T10:48:29+00:00</time>
      </trkpt>
      <trkpt lat="50.24912" lon="4.91971">
        <ele>89</ele>
        <time>2026-08-13T10:48:32+00:00</time>
      </trkpt>
      <trkpt lat="50.2492" lon="4.91967">
        <ele>89</ele>
        <time>2026-08-13T10:48:35+00:00</time>
      </trkpt>
      <trkpt lat="50.24938" lon="4.91948">
        <ele>89</ele>
        <time>2026-08-13T10:48:38+00:00</time>
      </trkpt>
      <trkpt lat="50.24962" lon="4.91923">
        <ele>89</ele>
        <time>2026-08-13T10:48:41+00:00</time>
      </trkpt>
      <trkpt lat="50.2498" lon="4.91907">
        <ele>89</ele>
        <time>2026-08-13T10:48:44+00:00</time>
      </trkpt>
      <trkpt lat="50.25005" lon="4.91888">
        <ele>89</ele>
        <time>2026-08-13T10:48:47+00:00</time>
      </trkpt>
      <trkpt lat="50.25017" lon="4.91876">
        <ele>89</ele>
        <time>2026-08-13T10:48:50+00:00</time>
      </trkpt>
      <trkpt lat="50.25031" lon="4.91864">
        <ele>90</ele>
        <time>2026-08-13T10:48:53+00:00</time>
      </trkpt>
      <trkpt lat="50.25046" lon="4.91852">
        <ele>90</ele>
        <time>2026-08-13T10:48:56+00:00</time>
      </trkpt>
      <trkpt lat="50.25074" lon="4.91823">
        <ele>89</ele>
        <time>2026-08-13T10:48:59+00:00</time>
      </trkpt>
      <trkpt lat="50.25103" lon="4.91795">
        <ele>89</ele>
        <time>2026-08-13T10:49:02+00:00</time>
      </trkpt>
      <trkpt lat="50.25131" lon="4.91766">
        <ele>89</ele>
        <time>2026-08-13T10:49:05+00:00</time>
      </trkpt>
      <trkpt lat="50.25179" lon="4.91718">
        <ele>89</ele>
        <time>2026-08-13T10:49:08+00:00</time>
      </trkpt>
      <trkpt lat="50.252" lon="4.91692">
        <ele>89</ele>
        <time>2026-08-13T10:49:11+00:00</time>
      </trkpt>
      <trkpt lat="50.25208" lon="4.91685">
        <ele>89</ele>
        <time>2026-08-13T10:49:14+00:00</time>
      </trkpt>
      <trkpt lat="50.25229" lon="4.91658">
        <ele>89</ele>
        <time>2026-08-13T10:49:17+00:00</time>
      </trkpt>
      <trkpt lat="50.25248" lon="4.9164">
        <ele>90</ele>
        <time>2026-08-13T10:49:20+00:00</time>
      </trkpt>
      <trkpt lat="50.25268" lon="4.91622">
        <ele>90</ele>
        <time>2026-08-13T10:49:23+00:00</time>
      </trkpt>
      <trkpt lat="50.25271" lon="4.91609">
        <ele>89</ele>
        <time>2026-08-13T10:49:26+00:00</time>
      </trkpt>
      <trkpt lat="50.25296" lon="4.91587">
        <ele>89</ele>
        <time>2026-08-13T10:49:29+00:00</time>
      </trkpt>
      <trkpt lat="50.25317" lon="4.91567">
        <ele>89</ele>
        <time>2026-08-13T10:49:32+00:00</time>
      </trkpt>
      <trkpt lat="50.25345" lon="4.91541">
        <ele>90</ele>
        <time>2026-08-13T10:49:35+00:00</time>
      </trkpt>
      <trkpt lat="50.25366" lon="4.91525">
        <ele>91</ele>
        <time>2026-08-13T10:49:38+00:00</time>
      </trkpt>
      <trkpt lat="50.2539" lon="4.91506">
        <ele>91</ele>
        <time>2026-08-13T10:49:41+00:00</time>
      </trkpt>
      <trkpt lat="50.25425" lon="4.91477">
        <ele>90</ele>
        <time>2026-08-13T10:49:44+00:00</time>
      </trkpt>
      <trkpt lat="50.25453" lon="4.91455">
        <ele>90</ele>
        <time>2026-08-13T10:49:47+00:00</time>
      </trkpt>
      <trkpt lat="50.25482" lon="4.91433">
        <ele>90</ele>
        <time>2026-08-13T10:49:50+00:00</time>
      </trkpt>
      <trkpt lat="50.25533" lon="4.91393">
        <ele>90</ele>
        <time>2026-08-13T10:49:53+00:00</time>
      </trkpt>
      <trkpt lat="50.2556" lon="4.91374">
        <ele>91</ele>
        <time>2026-08-13T10:49:56+00:00</time>
      </trkpt>
      <trkpt lat="50.25577" lon="4.91361">
        <ele>92</ele>
        <time>2026-08-13T10:49:59+00:00</time>
      </trkpt>
      <trkpt lat="50.25597" lon="4.9135">
        <ele>92</ele>
        <time>2026-08-13T10:50:02+00:00</time>
      </trkpt>
      <trkpt lat="50.25632" lon="4.91335">
        <ele>91</ele>
        <time>2026-08-13T10:50:05+00:00</time>
      </trkpt>
      <trkpt lat="50.25639" lon="4.91334">
        <ele>91</ele>
        <time>2026-08-13T10:50:08+00:00</time>
      </trkpt>
      <trkpt lat="50.25663" lon="4.91327">
        <ele>91</ele>
        <time>2026-08-13T10:50:11+00:00</time>
      </trkpt>
      <trkpt lat="50.25701" lon="4.91317">
        <ele>91</ele>
        <time>2026-08-13T10:50:14+00:00</time>
      </trkpt>
      <trkpt lat="50.25715" lon="4.91311">
        <ele>91</ele>
        <time>2026-08-13T10:50:17+00:00</time>
      </trkpt>
      <trkpt lat="50.25737" lon="4.91304">
        <ele>90</ele>
        <time>2026-08-13T10:50:20+00:00</time>
      </trkpt>
      <trkpt lat="50.25767" lon="4.91295">
        <ele>90</ele>
        <time>2026-08-13T10:50:23+00:00</time>
      </trkpt>
      <trkpt lat="50.25797" lon="4.91286">
        <ele>90</ele>
        <time>2026-08-13T10:50:26+00:00</time>
      </trkpt>
      <trkpt lat="50.25839" lon="4.91274">
        <ele>90</ele>
        <time>2026-08-13T10:50:29+00:00</time>
      </trkpt>
      <trkpt lat="50.2587" lon="4.91263">
        <ele>90</ele>
        <time>2026-08-13T10:50:32+00:00</time>
      </trkpt>
      <trkpt lat="50.25901" lon="4.91253">
        <ele>90</ele>
        <time>2026-08-13T10:50:35+00:00</time>
      </trkpt>
      <trkpt lat="50.25955" lon="4.91234">
        <ele>90</ele>
        <time>2026-08-13T10:50:38+00:00</time>
      </trkpt>
      <trkpt lat="50.25966" lon="4.9124">
        <ele>90</ele>
        <time>2026-08-13T10:50:41+00:00</time>
      </trkpt>
      <trkpt lat="50.25987" lon="4.91235">
        <ele>90</ele>
        <time>2026-08-13T10:50:44+00:00</time>
      </trkpt>
      <trkpt lat="50.26017" lon="4.91228">
        <ele>90</ele>
        <time>2026-08-13T10:50:47+00:00</time>
      </trkpt>
      <trkpt lat="50.26043" lon="4.91218">
        <ele>90</ele>
        <time>2026-08-13T10:50:50+00:00</time>
      </trkpt>
      <trkpt lat="50.26049" lon="4.91201">
        <ele>92</ele>
        <time>2026-08-13T10:50:53+00:00</time>
      </trkpt>
      <trkpt lat="50.2604" lon="4.91155">
        <ele>91</ele>
        <time>2026-08-13T10:50:56+00:00</time>
      </trkpt>
      <trkpt lat="50.26031" lon="4.9111">
        <ele>92</ele>
        <time>2026-08-13T10:50:59+00:00</time>
      </trkpt>
      <trkpt lat="50.26022" lon="4.91064">
        <ele>93</ele>
        <time>2026-08-13T10:51:02+00:00</time>
      </trkpt>
      <trkpt lat="50.2601" lon="4.91001">
        <ele>95</ele>
        <time>2026-08-13T10:51:05+00:00</time>
      </trkpt>
      <trkpt lat="50.26001" lon="4.90992">
        <ele>95</ele>
        <time>2026-08-13T10:51:08+00:00</time>
      </trkpt>
      <trkpt lat="50.25993" lon="4.90995">
        <ele>95</ele>
        <time>2026-08-13T10:51:11+00:00</time>
      </trkpt>
      <trkpt lat="50.25971" lon="4.91014">
        <ele>95</ele>
        <time>2026-08-13T10:51:14+00:00</time>
      </trkpt>
      <trkpt lat="50.25941" lon="4.91041">
        <ele>98</ele>
        <time>2026-08-13T10:51:17+00:00</time>
      </trkpt>
      <trkpt lat="50.25933" lon="4.91046">
        <ele>99</ele>
        <time>2026-08-13T10:51:20+00:00</time>
      </trkpt>
      <trkpt lat="50.25924" lon="4.9105">
        <ele>100</ele>
        <time>2026-08-13T10:51:23+00:00</time>
      </trkpt>
      <trkpt lat="50.25915" lon="4.91052">
        <ele>101</ele>
        <time>2026-08-13T10:51:26+00:00</time>
      </trkpt>
      <trkpt lat="50.25903" lon="4.91051">
        <ele>101</ele>
        <time>2026-08-13T10:51:29+00:00</time>
      </trkpt>
      <trkpt lat="50.25883" lon="4.91043">
        <ele>102</ele>
        <time>2026-08-13T10:51:32+00:00</time>
      </trkpt>
      <trkpt lat="50.25875" lon="4.91037">
        <ele>103</ele>
        <time>2026-08-13T10:51:35+00:00</time>
      </trkpt>
      <trkpt lat="50.25864" lon="4.91026">
        <ele>104</ele>
        <time>2026-08-13T10:51:38+00:00</time>
      </trkpt>
      <trkpt lat="50.2586" lon="4.91021">
        <ele>104</ele>
        <time>2026-08-13T10:51:41+00:00</time>
      </trkpt>
      <trkpt lat="50.25855" lon="4.91013">
        <ele>105</ele>
        <time>2026-08-13T10:51:44+00:00</time>
      </trkpt>
      <trkpt lat="50.2584" lon="4.90992">
        <ele>110</ele>
        <time>2026-08-13T10:51:47+00:00</time>
      </trkpt>
      <trkpt lat="50.25819" lon="4.90962">
        <ele>110</ele>
        <time>2026-08-13T10:51:50+00:00</time>
      </trkpt>
      <trkpt lat="50.25799" lon="4.90929">
        <ele>110</ele>
        <time>2026-08-13T10:51:53+00:00</time>
      </trkpt>
      <trkpt lat="50.25789" lon="4.90907">
        <ele>107</ele>
        <time>2026-08-13T10:51:56+00:00</time>
      </trkpt>
      <trkpt lat="50.25813" lon="4.90911">
        <ele>105</ele>
        <time>2026-08-13T10:51:59+00:00</time>
      </trkpt>
      <trkpt lat="50.25836" lon="4.9092">
        <ele>103</ele>
        <time>2026-08-13T10:52:02+00:00</time>
      </trkpt>
      <trkpt lat="50.25865" lon="4.90932">
        <ele>102</ele>
        <time>2026-08-13T10:52:05+00:00</time>
      </trkpt>
      <trkpt lat="50.25885" lon="4.90943">
        <ele>100</ele>
        <time>2026-08-13T10:52:08+00:00</time>
      </trkpt>
      <trkpt lat="50.2591" lon="4.9096">
        <ele>104</ele>
        <time>2026-08-13T10:52:11+00:00</time>
      </trkpt>
      <trkpt lat="50.2592" lon="4.90949">
        <ele>104</ele>
        <time>2026-08-13T10:52:14+00:00</time>
      </trkpt>
      <trkpt lat="50.25941" lon="4.90919">
        <ele>108</ele>
        <time>2026-08-13T10:52:17+00:00</time>
      </trkpt>
      <trkpt lat="50.25958" lon="4.90899">
        <ele>112</ele>
        <time>2026-08-13T10:52:20+00:00</time>
      </trkpt>
      <trkpt lat="50.25976" lon="4.90878">
        <ele>111</ele>
        <time>2026-08-13T10:52:23+00:00</time>
      </trkpt>
      <trkpt lat="50.25971" lon="4.90872">
        <ele>114</ele>
        <time>2026-08-13T10:52:26+00:00</time>
      </trkpt>
      <trkpt lat="50.25968" lon="4.90875">
        <ele>117</ele>
        <time>2026-08-13T10:52:29+00:00</time>
      </trkpt>
      <trkpt lat="50.25948" lon="4.909">
        <ele>111</ele>
        <time>2026-08-13T10:52:32+00:00</time>
      </trkpt>
      <trkpt lat="50.25936" lon="4.90905">
        <ele>112</ele>
        <time>2026-08-13T10:52:35+00:00</time>
      </trkpt>
      <trkpt lat="50.25924" lon="4.90898">
        <ele>115</ele>
        <time>2026-08-13T10:52:38+00:00</time>
      </trkpt>
      <trkpt lat="50.25914" lon="4.90891">
        <ele>116</ele>
        <time>2026-08-13T10:52:41+00:00</time>
      </trkpt>
      <trkpt lat="50.25905" lon="4.90883">
        <ele>119</ele>
        <time>2026-08-13T10:52:44+00:00</time>
      </trkpt>
      <trkpt lat="50.25894" lon="4.90867">
        <ele>124</ele>
        <time>2026-08-13T10:52:47+00:00</time>
      </trkpt>
      <trkpt lat="50.25888" lon="4.90864">
        <ele>124</ele>
        <time>2026-08-13T10:52:50+00:00</time>
      </trkpt>
      <trkpt lat="50.25879" lon="4.9085">
        <ele>129</ele>
        <time>2026-08-13T10:52:53+00:00</time>
      </trkpt>
      <trkpt lat="50.25862" lon="4.90821">
        <ele>133</ele>
        <time>2026-08-13T10:52:56+00:00</time>
      </trkpt>
      <trkpt lat="50.25861" lon="4.90816">
        <ele>135</ele>
        <time>2026-08-13T10:52:59+00:00</time>
      </trkpt>
      <trkpt lat="50.2585" lon="4.90786">
        <ele>142</ele>
        <time>2026-08-13T10:53:02+00:00</time>
      </trkpt>
      <trkpt lat="50.25825" lon="4.90763">
        <ele>145</ele>
        <time>2026-08-13T10:53:05+00:00</time>
      </trkpt>
      <trkpt lat="50.25819" lon="4.90746">
        <ele>149</ele>
        <time>2026-08-13T10:53:08+00:00</time>
      </trkpt>
      <trkpt lat="50.2582" lon="4.90722">
        <ele>154</ele>
        <time>2026-08-13T10:53:11+00:00</time>
      </trkpt>
      <trkpt lat="50.25818" lon="4.90698">
        <ele>162</ele>
        <time>2026-08-13T10:53:14+00:00</time>
      </trkpt>
      <trkpt lat="50.25824" lon="4.90695">
        <ele>154</ele>
        <time>2026-08-13T10:53:17+00:00</time>
      </trkpt>
      <trkpt lat="50.25824" lon="4.90694">
        <ele>161</ele>
        <time>2026-08-13T10:53:20+00:00</time>
      </trkpt>
      <trkpt lat="50.25825" lon="4.907">
        <ele>159</ele>
        <time>2026-08-13T10:53:23+00:00</time>
      </trkpt>
      <trkpt lat="50.25829" lon="4.90708">
        <ele>159</ele>
        <time>2026-08-13T10:53:26+00:00</time>
      </trkpt>
      <trkpt lat="50.25856" lon="4.9071">
        <ele>154</ele>
        <time>2026-08-13T10:53:29+00:00</time>
      </trkpt>
      <trkpt lat="50.25885" lon="4.90707">
        <ele>153</ele>
        <time>2026-08-13T10:53:32+00:00</time>
      </trkpt>
      <trkpt lat="50.25907" lon="4.907">
        <ele>152</ele>
        <time>2026-08-13T10:53:35+00:00</time>
      </trkpt>
      <trkpt lat="50.2593" lon="4.90692">
        <ele>148</ele>
        <time>2026-08-13T10:53:38+00:00</time>
      </trkpt>
      <trkpt lat="50.25939" lon="4.90693">
        <ele>146</ele>
        <time>2026-08-13T10:53:41+00:00</time>
      </trkpt>
      <trkpt lat="50.25948" lon="4.90699">
        <ele>146</ele>
        <time>2026-08-13T10:53:44+00:00</time>
      </trkpt>
      <trkpt lat="50.25969" lon="4.90689">
        <ele>144</ele>
        <time>2026-08-13T10:53:47+00:00</time>
      </trkpt>
      <trkpt lat="50.25987" lon="4.90685">
        <ele>142</ele>
        <time>2026-08-13T10:53:50+00:00</time>
      </trkpt>
      <trkpt lat="50.25982" lon="4.9069">
        <ele>138</ele>
        <time>2026-08-13T10:53:53+00:00</time>
      </trkpt>
      <trkpt lat="50.25972" lon="4.90696">
        <ele>137</ele>
        <time>2026-08-13T10:53:56+00:00</time>
      </trkpt>
      <trkpt lat="50.25958" lon="4.90702">
        <ele>140</ele>
        <time>2026-08-13T10:53:59+00:00</time>
      </trkpt>
      <trkpt lat="50.25944" lon="4.90709">
        <ele>138</ele>
        <time>2026-08-13T10:54:02+00:00</time>
      </trkpt>
      <trkpt lat="50.25935" lon="4.90714">
        <ele>138</ele>
        <time>2026-08-13T10:54:05+00:00</time>
      </trkpt>
      <trkpt lat="50.25936" lon="4.90715">
        <ele>138</ele>
        <time>2026-08-13T10:54:08+00:00</time>
      </trkpt>
    </trkseg>
  </trk>
</gpx>
